createdAt,value
2023-05-07T00:00:06.646Z,41.40
2023-05-07T00:01:06.643Z,40.60
2023-05-07T00:02:06.607Z,40.60
2023-05-07T00:03:06.757Z,42.70
2023-05-07T00:04:06.834Z,42.20
2023-05-07T00:05:06.717Z,42.10
2023-05-07T00:06:06.587Z,40.80
2023-05-07T00:07:06.697Z,40.90
2023-05-07T00:08:06.639Z,42.90
2023-05-07T00:09:06.618Z,43.70
2023-05-07T00:10:06.557Z,42.30
2023-05-07T00:11:06.548Z,44.10
2023-05-07T00:12:06.542Z,43.70
2023-05-07T00:13:06.619Z,43.60
2023-05-07T00:14:06.563Z,44.70
2023-05-07T00:15:06.513Z,44.30
2023-05-07T00:16:06.509Z,45.30
2023-05-07T00:17:06.535Z,44.30
2023-05-07T00:18:06.676Z,43.10
2023-05-07T00:19:06.496Z,50.00
2023-05-07T00:20:06.541Z,44.60
2023-05-07T00:21:06.474Z,47.00
2023-05-07T00:22:07.494Z,45.50
2023-05-07T00:23:06.452Z,45.10
2023-05-07T00:24:06.536Z,48.20
2023-05-07T00:25:06.507Z,46.40
2023-05-07T00:26:06.430Z,47.50
2023-05-07T00:27:06.461Z,46.00
2023-05-07T00:28:06.440Z,47.30
2023-05-07T00:29:06.401Z,48.30
2023-05-07T00:30:06.394Z,49.00
2023-05-07T00:31:06.415Z,48.50
2023-05-07T00:32:06.461Z,47.30
2023-05-07T00:33:06.390Z,48.40
2023-05-07T00:34:06.381Z,47.50
2023-05-07T00:35:06.359Z,50.40
2023-05-07T00:36:06.938Z,48.00
2023-05-07T00:37:06.916Z,50.50
2023-05-07T00:38:07.335Z,48.50
2023-05-07T00:39:06.341Z,46.50
2023-05-07T00:40:06.501Z,48.20
2023-05-07T00:41:06.342Z,48.90
2023-05-07T00:42:06.302Z,49.70
2023-05-07T00:43:06.309Z,48.70
2023-05-07T00:44:06.293Z,47.70
2023-05-07T00:45:06.279Z,48.60
2023-05-07T00:46:06.425Z,47.70
2023-05-07T00:47:06.346Z,49.30
2023-05-07T00:48:06.298Z,50.20
2023-05-07T00:49:06.265Z,48.50
2023-05-07T00:50:06.304Z,48.80
2023-05-07T00:51:06.309Z,48.90
2023-05-07T00:52:06.257Z,49.60
2023-05-07T00:53:06.232Z,46.10
2023-05-07T00:54:06.215Z,47.90
2023-05-07T00:55:06.289Z,49.50
2023-05-07T00:56:06.201Z,48.80
2023-05-07T00:57:06.204Z,49.10
2023-05-07T00:58:06.181Z,49.50
2023-05-07T00:59:06.206Z,49.20
2023-05-07T01:00:06.262Z,49.20
2023-05-07T01:01:06.265Z,51.80
2023-05-07T01:02:06.157Z,48.50
2023-05-07T01:03:06.202Z,50.00
2023-05-07T01:04:06.169Z,51.00
2023-05-07T01:05:06.174Z,49.40
2023-05-07T01:06:06.116Z,47.40
2023-05-07T01:07:06.104Z,50.50
2023-05-07T01:08:06.184Z,48.50
2023-05-07T01:09:06.165Z,52.10
2023-05-07T01:10:06.116Z,49.20
2023-05-07T01:11:06.090Z,50.90
2023-05-07T01:12:07.086Z,51.20
2023-05-07T01:13:06.767Z,48.30
2023-05-07T01:14:06.089Z,49.50
2023-05-07T01:15:06.055Z,50.50
2023-05-07T01:16:06.045Z,52.50
2023-05-07T01:17:06.069Z,53.90
2023-05-07T01:18:06.097Z,51.30
2023-05-07T01:19:06.049Z,50.80
2023-05-07T01:20:06.022Z,52.20
2023-05-07T01:21:06.020Z,51.50
2023-05-07T01:22:05.998Z,54.40
2023-05-07T01:23:06.008Z,51.60
2023-05-07T01:24:06.050Z,51.00
2023-05-07T01:25:05.988Z,52.80
2023-05-07T01:26:05.998Z,51.20
2023-05-07T01:27:05.968Z,54.40
2023-05-07T01:28:06.022Z,52.90
2023-05-07T01:29:05.963Z,53.10
2023-05-07T01:30:05.976Z,53.90
2023-05-07T01:31:05.956Z,52.50
2023-05-07T01:32:05.910Z,53.70
2023-05-07T01:33:05.954Z,54.60
2023-05-07T01:34:05.929Z,55.20
2023-05-07T01:35:05.906Z,55.10
2023-05-07T01:36:05.891Z,54.90
2023-05-07T01:37:05.961Z,54.70
2023-05-07T01:38:05.922Z,56.50
2023-05-07T01:39:05.885Z,55.60
2023-05-07T01:40:05.858Z,54.60
2023-05-07T01:41:05.852Z,56.40
2023-05-07T01:42:05.838Z,56.90
2023-05-07T01:43:05.928Z,55.60
2023-05-07T01:44:06.071Z,56.00
2023-05-07T01:45:05.953Z,55.20
2023-05-07T01:46:05.829Z,58.10
2023-05-07T01:47:05.840Z,57.60
2023-05-07T01:48:05.854Z,59.50
2023-05-07T01:49:05.790Z,56.10
2023-05-07T01:50:05.772Z,61.00
2023-05-07T01:51:05.784Z,59.20
2023-05-07T01:52:05.789Z,61.50
2023-05-07T01:53:05.748Z,62.00
2023-05-07T01:54:05.736Z,57.90
2023-05-07T01:55:05.725Z,59.20
2023-05-07T01:56:05.735Z,63.80
2023-05-07T01:57:05.739Z,61.50
2023-05-07T01:58:05.730Z,62.20
2023-05-07T01:59:05.704Z,64.00
2023-05-07T02:00:05.763Z,62.10
2023-05-07T02:01:05.748Z,61.30
2023-05-07T02:02:05.730Z,61.40
2023-05-07T02:03:05.746Z,61.20
2023-05-07T02:04:05.724Z,62.70
2023-05-07T02:05:05.669Z,61.50
2023-05-07T02:06:05.674Z,64.40
2023-05-07T02:07:05.729Z,60.90
2023-05-07T02:08:05.631Z,61.20
2023-05-07T02:09:05.661Z,64.90
2023-05-07T02:10:05.623Z,65.70
2023-05-07T02:11:05.645Z,64.10
2023-05-07T02:12:05.628Z,63.60
2023-05-07T02:13:05.648Z,63.00
2023-05-07T02:14:05.601Z,63.30
2023-05-07T02:15:05.626Z,62.20
2023-05-07T02:16:05.781Z,61.20
2023-05-07T02:17:05.593Z,65.50
2023-05-07T02:18:05.598Z,62.80
2023-05-07T02:19:05.568Z,64.10
2023-05-07T02:20:05.577Z,63.30
2023-05-07T02:21:05.623Z,60.60
2023-05-07T02:22:05.532Z,64.30
2023-05-07T02:23:05.522Z,62.90
2023-05-07T02:24:05.519Z,62.70
2023-05-07T02:25:05.548Z,62.70
2023-05-07T02:26:05.503Z,61.10
2023-05-07T02:27:05.496Z,63.10
2023-05-07T02:28:05.516Z,62.90
2023-05-07T02:29:05.478Z,60.50
2023-05-07T02:30:05.511Z,62.40
2023-05-07T02:31:05.477Z,63.30
2023-05-07T02:32:05.619Z,58.70
2023-05-07T02:33:05.462Z,60.40
2023-05-07T02:34:05.463Z,62.00
2023-05-07T02:35:05.524Z,59.20
2023-05-07T02:36:05.438Z,61.10
2023-05-07T02:37:05.434Z,60.20
2023-05-07T02:38:05.417Z,59.40
2023-05-07T02:39:05.434Z,60.60
2023-05-07T02:40:05.568Z,58.00
2023-05-07T02:41:06.365Z,58.30
2023-05-07T02:42:05.388Z,59.50
2023-05-07T02:43:05.379Z,58.40
2023-05-07T02:44:05.390Z,59.60
2023-05-07T02:45:05.509Z,58.20
2023-05-07T02:46:05.397Z,57.60
2023-05-07T02:47:05.360Z,58.60
2023-05-07T02:48:05.499Z,57.40
2023-05-07T02:49:05.473Z,57.70
2023-05-07T02:50:05.313Z,60.50
2023-05-07T02:51:05.317Z,58.90
2023-05-07T02:52:05.345Z,59.40
2023-05-07T02:53:05.363Z,58.00
2023-05-07T02:54:05.318Z,61.20
2023-05-07T02:55:05.312Z,59.80
2023-05-07T02:56:05.301Z,59.70
2023-05-07T02:57:06.276Z,57.10
2023-05-07T02:58:06.172Z,56.40
2023-05-07T02:59:05.255Z,58.20
2023-05-07T03:00:05.242Z,57.80
2023-05-07T03:01:06.300Z,58.00
2023-05-07T03:02:05.261Z,58.70
2023-05-07T03:03:05.296Z,57.50
2023-05-07T03:04:05.272Z,58.50
2023-05-07T03:05:05.225Z,58.20
2023-05-07T03:06:05.208Z,58.30
2023-05-07T03:07:05.230Z,58.90
2023-05-07T03:08:05.194Z,57.40
2023-05-07T03:09:05.173Z,59.10
2023-05-07T03:10:05.173Z,58.40
2023-05-07T03:11:05.172Z,55.60
2023-05-07T03:12:05.185Z,56.30
2023-05-07T03:13:05.196Z,58.60
2023-05-07T03:14:05.182Z,56.10
2023-05-07T03:15:05.161Z,57.80
2023-05-07T03:16:05.181Z,57.60
2023-05-07T03:17:05.148Z,59.10
2023-05-07T03:18:05.223Z,57.20
2023-05-07T03:19:05.233Z,60.40
2023-05-07T03:20:05.269Z,58.80
2023-05-07T03:21:05.159Z,57.20
2023-05-07T03:22:05.103Z,56.00
2023-05-07T03:23:05.074Z,59.40
2023-05-07T03:24:05.086Z,57.50
2023-05-07T03:25:05.059Z,58.10
2023-05-07T03:26:05.071Z,59.60
2023-05-07T03:27:05.078Z,60.40
2023-05-07T03:28:05.036Z,57.90
2023-05-07T03:29:05.024Z,57.90
2023-05-07T03:30:05.041Z,60.30
2023-05-07T03:31:05.070Z,62.10
2023-05-07T03:32:05.010Z,62.60
2023-05-07T03:33:05.070Z,60.30
2023-05-07T03:34:04.992Z,63.30
2023-05-07T03:35:05.802Z,60.70
2023-05-07T03:36:05.173Z,61.60
2023-05-07T03:37:04.970Z,62.90
2023-05-07T03:38:04.953Z,62.40
2023-05-07T03:39:04.950Z,60.90
2023-05-07T03:40:05.081Z,64.80
2023-05-07T03:41:04.936Z,63.50
2023-05-07T03:42:04.930Z,63.30
2023-05-07T03:43:04.923Z,62.70
2023-05-07T03:44:04.915Z,61.90
2023-05-07T03:45:04.928Z,63.90
2023-05-07T03:46:04.917Z,64.00
2023-05-07T03:47:05.871Z,62.40
2023-05-07T03:48:04.905Z,66.30
2023-05-07T03:49:04.868Z,61.90
2023-05-07T03:50:04.896Z,63.00
2023-05-07T03:51:04.858Z,64.70
2023-05-07T03:52:04.930Z,65.50
2023-05-07T03:53:04.866Z,63.80
2023-05-07T03:54:04.876Z,64.10
2023-05-07T03:55:04.860Z,64.50
2023-05-07T03:56:04.832Z,63.10
2023-05-07T03:57:04.912Z,62.60
2023-05-07T03:58:04.829Z,64.10
2023-05-07T03:59:04.841Z,62.70
2023-05-07T04:00:04.817Z,64.10
2023-05-07T04:01:04.875Z,59.70
2023-05-07T04:02:05.682Z,62.00
2023-05-07T04:03:04.888Z,59.80
2023-05-07T04:04:04.970Z,62.40
2023-05-07T04:05:04.758Z,59.00
2023-05-07T04:06:04.749Z,60.60
2023-05-07T04:07:05.739Z,60.40
2023-05-07T04:08:04.916Z,61.10
2023-05-07T04:09:04.750Z,60.70
2023-05-07T04:10:04.716Z,62.20
2023-05-07T04:11:04.732Z,60.60
2023-05-07T04:12:04.706Z,59.80
2023-05-07T04:13:05.266Z,60.60
2023-05-07T04:14:04.782Z,59.80
2023-05-07T04:15:04.681Z,61.00
2023-05-07T04:16:04.684Z,58.80
2023-05-07T04:17:04.750Z,61.50
2023-05-07T04:18:04.729Z,61.30
2023-05-07T04:19:04.664Z,59.80
2023-05-07T04:20:04.643Z,60.80
2023-05-07T04:21:04.639Z,61.30
2023-05-07T04:22:05.655Z,59.30
2023-05-07T04:23:04.663Z,63.00
2023-05-07T04:24:04.673Z,61.70
2023-05-07T04:25:04.687Z,62.00
2023-05-07T04:26:04.615Z,61.40
2023-05-07T04:27:04.627Z,60.20
2023-05-07T04:28:04.609Z,60.50
2023-05-07T04:29:04.636Z,61.20
2023-05-07T04:30:04.573Z,60.90
2023-05-07T04:31:04.596Z,60.50
2023-05-07T04:32:04.677Z,59.60
2023-05-07T04:33:04.627Z,61.40
2023-05-07T04:34:04.539Z,61.50
2023-05-07T04:35:04.539Z,60.50
2023-05-07T04:36:04.573Z,60.60
2023-05-07T04:37:04.606Z,60.70
2023-05-07T04:38:04.511Z,63.20
2023-05-07T04:39:04.598Z,61.10
2023-05-07T04:40:04.575Z,62.20
2023-05-07T04:41:04.538Z,59.80
2023-05-07T04:42:04.493Z,60.70
2023-05-07T04:43:04.468Z,61.20
2023-05-07T04:44:04.470Z,58.40
2023-05-07T04:45:04.472Z,60.30
2023-05-07T04:46:04.500Z,61.50
2023-05-07T04:47:04.452Z,60.20
2023-05-07T04:48:04.533Z,62.40
2023-05-07T04:49:04.427Z,64.00
2023-05-07T04:50:04.449Z,59.80
2023-05-07T04:51:04.436Z,60.40
2023-05-07T04:52:04.425Z,59.90
2023-05-07T04:53:04.394Z,58.40
2023-05-07T04:54:04.383Z,59.30
2023-05-07T04:55:04.452Z,57.10
2023-05-07T04:56:04.396Z,59.70
2023-05-07T04:57:04.363Z,58.60
2023-05-07T04:58:04.357Z,58.90
2023-05-07T04:59:04.360Z,59.40
2023-05-07T05:00:04.376Z,57.60
2023-05-07T05:01:04.418Z,60.00
2023-05-07T05:02:04.346Z,63.90
2023-05-07T05:03:04.363Z,62.40
2023-05-07T05:04:04.393Z,63.30
2023-05-07T05:05:04.327Z,57.90
2023-05-07T05:06:04.396Z,63.40
2023-05-07T05:07:04.341Z,60.20
2023-05-07T05:08:04.293Z,62.10
2023-05-07T05:09:04.321Z,56.20
2023-05-07T05:10:04.299Z,59.10
2023-05-07T05:11:04.280Z,60.40
2023-05-07T05:12:04.499Z,57.00
2023-05-07T05:13:04.279Z,58.50
2023-05-07T05:14:04.270Z,57.90
2023-05-07T05:15:04.230Z,58.70
2023-05-07T05:16:04.270Z,55.50
2023-05-07T05:17:04.234Z,58.90
2023-05-07T05:18:04.259Z,56.90
2023-05-07T05:19:04.245Z,55.90
2023-05-07T05:20:04.275Z,58.70
2023-05-07T05:21:04.203Z,52.90
2023-05-07T05:22:04.230Z,53.30
2023-05-07T05:23:04.232Z,54.20
2023-05-07T05:24:04.178Z,52.10
2023-05-07T05:25:04.212Z,51.20
2023-05-07T05:26:04.160Z,53.30
2023-05-07T05:27:04.157Z,52.00
2023-05-07T05:28:04.215Z,53.70
2023-05-07T05:29:04.126Z,50.00
2023-05-07T05:30:04.131Z,50.20
2023-05-07T05:31:04.123Z,49.90
2023-05-07T05:32:04.280Z,50.00
2023-05-07T05:33:04.167Z,48.20
2023-05-07T05:34:04.106Z,47.10
2023-05-07T05:35:04.082Z,48.90
2023-05-07T05:36:04.087Z,48.40
2023-05-07T05:37:04.096Z,46.60
2023-05-07T05:38:04.065Z,48.00
2023-05-07T05:40:14.582Z,46.50
2023-05-07T05:41:14.603Z,47.60
2023-05-07T05:42:14.617Z,48.10
2023-05-07T05:43:14.731Z,47.90
2023-05-07T05:44:14.594Z,47.40
2023-05-07T05:45:14.572Z,47.70
2023-05-07T05:46:14.796Z,45.70
2023-05-07T05:47:14.576Z,46.10
2023-05-07T05:48:14.632Z,46.60
2023-05-07T05:49:14.547Z,46.70
2023-05-07T05:50:14.541Z,44.20
2023-05-07T05:51:14.553Z,47.90
2023-05-07T05:52:15.671Z,45.60
2023-05-07T05:53:15.643Z,41.50
2023-05-07T05:54:15.648Z,46.70
2023-05-07T05:55:15.650Z,49.40
2023-05-07T05:56:15.662Z,46.90
2023-05-07T05:57:15.607Z,42.00
2023-05-07T05:58:15.606Z,46.60
2023-05-07T05:59:15.626Z,51.50
2023-05-07T06:00:15.653Z,48.20
2023-05-07T06:01:15.621Z,46.70
2023-05-07T06:02:15.726Z,47.60
2023-05-07T06:03:15.615Z,46.10
2023-05-07T06:04:15.561Z,49.20
2023-05-07T06:05:15.633Z,47.00
2023-05-07T06:06:15.569Z,47.50
2023-05-07T06:07:15.535Z,47.10
2023-05-07T06:08:15.529Z,49.10
2023-05-07T06:09:15.796Z,49.90
2023-05-07T06:10:16.538Z,47.10
2023-05-07T06:11:15.509Z,48.90
2023-05-07T06:12:15.499Z,49.00
2023-05-07T06:13:15.535Z,51.80
2023-05-07T06:14:15.480Z,50.60
2023-05-07T06:15:15.550Z,50.90
2023-05-07T06:16:15.546Z,50.30
2023-05-07T06:17:15.463Z,50.90
2023-05-07T06:18:16.350Z,50.30
2023-05-07T06:19:15.476Z,50.80
2023-05-07T06:20:15.466Z,52.90
2023-05-07T06:21:15.479Z,49.50
2023-05-07T06:22:15.422Z,50.10
2023-05-07T06:23:17.647Z,49.20
2023-05-07T06:24:16.494Z,52.80
2023-05-07T06:25:15.401Z,51.20
2023-05-07T06:26:15.389Z,50.50
2023-05-07T06:27:15.384Z,49.30
2023-05-07T06:28:15.376Z,48.70
2023-05-07T06:29:15.394Z,50.40
2023-05-07T06:30:15.361Z,53.00
2023-05-07T06:31:15.434Z,50.70
2023-05-07T06:32:15.400Z,51.20
2023-05-07T06:33:15.377Z,51.70
2023-05-07T06:34:15.346Z,52.00
2023-05-07T06:35:15.402Z,51.50
2023-05-07T06:36:15.317Z,52.70
2023-05-07T06:37:15.310Z,53.30
2023-05-07T06:38:15.325Z,52.60
2023-05-07T06:39:16.287Z,54.40
2023-05-07T06:40:15.284Z,52.40
2023-05-07T06:41:15.277Z,53.10
2023-05-07T06:42:15.268Z,50.70
2023-05-07T06:43:15.284Z,54.50
2023-05-07T06:44:15.256Z,53.00
2023-05-07T06:45:15.239Z,52.80
2023-05-07T06:46:15.263Z,54.80
2023-05-07T06:47:16.406Z,54.60
2023-05-07T06:48:16.239Z,55.50
2023-05-07T06:49:15.206Z,54.10
2023-05-07T06:50:15.228Z,55.80
2023-05-07T06:51:15.206Z,54.10
2023-05-07T06:52:15.219Z,53.40
2023-05-07T06:53:15.178Z,54.10
2023-05-07T06:54:15.195Z,51.90
2023-05-07T06:55:15.172Z,53.20
2023-05-07T06:56:15.160Z,53.40
2023-05-07T06:57:15.177Z,54.40
2023-05-07T06:58:15.144Z,54.70
2023-05-07T06:59:15.170Z,55.30
2023-05-07T07:00:15.132Z,54.20
2023-05-07T07:01:15.191Z,54.20
2023-05-07T07:02:16.999Z,53.90
2023-05-07T07:03:15.160Z,53.10
2023-05-07T07:04:15.120Z,55.60
2023-05-07T07:05:15.100Z,54.70
2023-05-07T07:06:15.112Z,54.40
2023-05-07T07:07:15.092Z,52.30
2023-05-07T07:08:15.063Z,54.90
2023-05-07T07:09:15.061Z,55.00
2023-05-07T07:10:15.065Z,53.50
2023-05-07T07:11:15.070Z,55.90
2023-05-07T07:12:15.041Z,53.60
2023-05-07T07:13:15.027Z,52.80
2023-05-07T07:14:15.007Z,56.30
2023-05-07T07:15:15.011Z,53.50
2023-05-07T07:16:15.061Z,53.40
2023-05-07T07:17:14.990Z,52.20
2023-05-07T07:18:14.984Z,52.90
2023-05-07T07:19:15.025Z,53.50
2023-05-07T07:20:15.083Z,51.30
2023-05-07T07:21:14.981Z,48.70
2023-05-07T07:22:14.949Z,51.30
2023-05-07T07:23:14.970Z,52.10
2023-05-07T07:24:14.963Z,51.90
2023-05-07T07:25:14.997Z,49.50
2023-05-07T07:26:14.945Z,49.80
2023-05-07T07:27:14.915Z,51.10
2023-05-07T07:28:14.907Z,48.30
2023-05-07T07:29:14.925Z,45.70
2023-05-07T07:30:14.915Z,50.30
2023-05-07T07:31:14.905Z,48.40
2023-05-07T07:32:14.881Z,46.40
2023-05-07T07:33:14.863Z,47.10
2023-05-07T07:34:14.883Z,46.40
2023-05-07T07:35:15.085Z,44.70
2023-05-07T07:36:14.840Z,44.20
2023-05-07T07:37:14.857Z,43.50
2023-05-07T07:38:14.837Z,43.30
2023-05-07T07:39:14.852Z,44.40
2023-05-07T07:40:14.841Z,44.80
2023-05-07T07:41:15.812Z,43.90
2023-05-07T07:42:14.803Z,42.70
2023-05-07T07:43:14.869Z,43.10
2023-05-07T07:44:15.927Z,43.00
2023-05-07T07:45:15.782Z,42.40
2023-05-07T07:46:14.808Z,41.30
2023-05-07T07:47:14.793Z,42.10
2023-05-07T07:48:14.795Z,42.50
2023-05-07T07:49:14.784Z,40.80
2023-05-07T07:50:21.976Z,41.30
2023-05-07T07:51:16.788Z,41.60
2023-05-07T07:52:14.726Z,38.70
2023-05-07T07:53:14.730Z,38.50
2023-05-07T07:54:14.760Z,39.00
2023-05-07T07:55:14.705Z,37.30
2023-05-07T07:56:14.778Z,36.70
2023-05-07T07:57:14.697Z,38.70
2023-05-07T07:58:14.700Z,38.20
2023-05-07T07:59:14.704Z,38.90
2023-05-07T08:00:14.695Z,37.30
2023-05-07T08:01:14.656Z,36.90
2023-05-07T08:02:14.721Z,34.90
2023-05-07T08:03:14.789Z,34.50
2023-05-07T08:04:14.693Z,35.10
2023-05-07T08:05:14.643Z,34.00
2023-05-07T08:06:15.306Z,34.50
2023-05-07T08:07:15.664Z,33.30
2023-05-07T08:08:14.632Z,33.40
2023-05-07T08:09:14.612Z,32.60
2023-05-07T08:10:14.612Z,33.00
2023-05-07T08:11:14.584Z,33.10
2023-05-07T08:12:14.571Z,29.30
2023-05-07T08:13:14.656Z,32.30
2023-05-07T08:14:14.570Z,32.00
2023-05-07T08:15:14.555Z,27.70
2023-05-07T08:16:14.638Z,31.20
2023-05-07T08:17:14.640Z,30.80
2023-05-07T08:18:14.617Z,28.10
2023-05-07T08:19:14.526Z,29.70
2023-05-07T08:20:14.651Z,28.60
2023-05-07T08:21:14.567Z,31.20
2023-05-07T08:22:14.546Z,28.30
2023-05-07T08:23:14.634Z,29.00
2023-05-07T08:24:14.507Z,27.80
2023-05-07T08:25:14.492Z,28.60
2023-05-07T08:26:14.531Z,27.10
2023-05-07T08:27:14.494Z,27.40
2023-05-07T08:28:14.486Z,23.70
2023-05-07T08:29:14.469Z,26.10
2023-05-07T08:30:14.478Z,24.30
2023-05-07T08:31:14.575Z,25.30
2023-05-07T08:32:14.453Z,25.50
2023-05-07T08:33:14.458Z,24.50
2023-05-07T08:34:14.462Z,25.50
2023-05-07T08:35:14.414Z,25.40
2023-05-07T08:36:14.447Z,24.00
2023-05-07T08:37:14.421Z,24.50
2023-05-07T08:38:14.400Z,24.70
2023-05-07T08:39:14.393Z,24.00
2023-05-07T08:40:14.798Z,25.60
2023-05-07T08:41:15.442Z,23.00
2023-05-07T08:42:14.371Z,23.60
2023-05-07T08:43:15.354Z,23.90
2023-05-07T08:44:14.350Z,24.10
2023-05-07T08:45:15.408Z,24.00
2023-05-07T08:46:15.239Z,23.50
2023-05-07T08:47:14.314Z,23.60
2023-05-07T08:48:14.312Z,23.20
2023-05-07T08:49:14.314Z,22.60
2023-05-07T08:50:14.333Z,21.90
2023-05-07T08:51:14.280Z,21.50
2023-05-07T08:52:14.288Z,21.20
2023-05-07T08:53:14.262Z,23.90
2023-05-07T08:54:14.335Z,22.10
2023-05-07T08:55:15.431Z,21.20
2023-05-07T08:56:14.279Z,20.90
2023-05-07T08:57:14.282Z,22.70
2023-05-07T08:58:14.236Z,21.30
2023-05-07T08:59:14.289Z,22.50
2023-05-07T09:00:14.281Z,22.00
2023-05-07T09:01:14.320Z,20.80
2023-05-07T09:02:14.288Z,22.20
2023-05-07T09:03:14.271Z,19.80
2023-05-07T09:04:14.384Z,20.20
2023-05-07T09:05:14.288Z,20.60
2023-05-07T09:06:14.178Z,20.20
2023-05-07T09:07:14.156Z,19.70
2023-05-07T09:08:14.171Z,21.50
2023-05-07T09:09:14.181Z,20.50
2023-05-07T09:10:14.153Z,20.40
2023-05-07T09:11:14.174Z,20.20
2023-05-07T09:12:14.140Z,19.40
2023-05-07T09:13:14.220Z,20.20
2023-05-07T09:14:14.130Z,20.80
2023-05-07T09:15:14.173Z,20.30
2023-05-07T09:16:14.158Z,19.90
2023-05-07T09:17:14.091Z,19.50
2023-05-07T09:18:16.538Z,18.60
2023-05-07T09:19:14.107Z,18.30
2023-05-07T09:20:14.054Z,19.40
2023-05-07T09:21:15.057Z,19.10
2023-05-07T09:22:14.042Z,19.10
2023-05-07T09:23:14.056Z,19.30
2023-05-07T09:24:14.034Z,18.40
2023-05-07T09:25:14.332Z,18.80
2023-05-07T09:26:14.052Z,19.90
2023-05-07T09:27:14.066Z,19.80
2023-05-07T09:28:14.016Z,21.20
2023-05-07T09:29:13.987Z,20.20
2023-05-07T09:30:14.060Z,21.10
2023-05-07T09:31:14.030Z,19.40
2023-05-07T09:32:14.730Z,20.50
2023-05-07T09:33:13.989Z,21.20
2023-05-07T09:34:13.981Z,20.40
2023-05-07T09:35:13.935Z,19.50
2023-05-07T09:36:13.935Z,19.60
2023-05-07T09:37:13.952Z,19.30
2023-05-07T09:38:13.932Z,19.80
2023-05-07T09:39:13.916Z,20.40
2023-05-07T09:40:13.928Z,19.80
2023-05-07T09:41:13.899Z,19.30
2023-05-07T09:42:13.925Z,18.70
2023-05-07T09:43:13.892Z,19.60
2023-05-07T09:44:13.871Z,19.20
2023-05-07T09:45:13.967Z,19.60
2023-05-07T09:46:14.071Z,21.30
2023-05-07T09:47:14.433Z,18.70
2023-05-07T09:48:13.840Z,18.50
2023-05-07T09:49:13.828Z,19.60
2023-05-07T09:50:13.830Z,18.40
2023-05-07T09:51:14.393Z,18.90
2023-05-07T09:52:14.728Z,20.30
2023-05-07T09:53:13.922Z,18.70
2023-05-07T09:54:13.799Z,20.00
2023-05-07T09:55:13.833Z,18.80
2023-05-07T09:56:13.809Z,19.20
2023-05-07T09:57:13.771Z,19.80
2023-05-07T09:58:13.768Z,18.80
2023-05-07T09:59:13.891Z,18.80
2023-05-07T10:00:13.780Z,18.40
2023-05-07T10:01:13.804Z,19.00
2023-05-07T10:02:13.772Z,18.30
2023-05-07T10:03:13.893Z,17.70
2023-05-07T10:04:13.730Z,17.60
2023-05-07T10:05:13.860Z,17.50
2023-05-07T10:06:13.771Z,18.00
2023-05-07T10:07:13.691Z,18.90
2023-05-07T10:08:13.680Z,18.40
2023-05-07T10:09:13.681Z,18.30
2023-05-07T10:10:13.707Z,18.00
2023-05-07T10:11:13.692Z,17.10
2023-05-07T10:12:13.703Z,18.10
2023-05-07T10:13:13.732Z,17.80
2023-05-07T10:14:13.645Z,18.20
2023-05-07T10:15:13.955Z,18.20
2023-05-07T10:16:13.631Z,18.00
2023-05-07T10:17:13.628Z,16.70
2023-05-07T10:18:13.760Z,19.20
2023-05-07T10:19:13.638Z,18.50
2023-05-07T10:20:13.623Z,16.70
2023-05-07T10:21:13.585Z,16.20
2023-05-07T10:22:13.582Z,17.90
2023-05-07T10:23:13.586Z,16.10
2023-05-07T10:24:13.588Z,16.10
2023-05-07T10:25:13.803Z,16.30
2023-05-07T10:26:13.550Z,16.70
2023-05-07T10:27:13.536Z,15.80
2023-05-07T10:28:13.537Z,17.10
2023-05-07T10:29:13.553Z,16.60
2023-05-07T10:30:13.551Z,17.40
2023-05-07T10:31:13.586Z,17.30
2023-05-07T10:32:13.507Z,16.30
2023-05-07T10:33:13.525Z,16.70
2023-05-07T10:34:13.535Z,17.70
2023-05-07T10:35:13.652Z,17.20
2023-05-07T10:36:13.489Z,16.40
2023-05-07T10:37:13.473Z,18.30
2023-05-07T10:38:13.471Z,15.80
2023-05-07T10:39:13.520Z,16.00
2023-05-07T10:40:13.492Z,17.30
2023-05-07T10:41:13.440Z,17.20
2023-05-07T10:42:13.482Z,17.50
2023-05-07T10:43:13.451Z,16.80
2023-05-07T10:44:13.519Z,17.80
2023-05-07T10:45:13.416Z,17.50
2023-05-07T10:46:13.480Z,15.90
2023-05-07T10:47:13.522Z,16.80
2023-05-07T10:48:27.835Z,18.10
2023-05-07T10:49:15.381Z,16.10
2023-05-07T10:50:13.448Z,16.00
2023-05-07T10:51:13.386Z,14.20
2023-05-07T10:52:13.409Z,15.90
2023-05-07T10:53:13.376Z,16.30
2023-05-07T10:54:13.342Z,16.80
2023-05-07T10:55:13.397Z,16.00
2023-05-07T10:56:13.334Z,15.90
2023-05-07T10:57:13.352Z,15.20
2023-05-07T10:58:20.062Z,16.20
2023-05-07T10:59:15.308Z,15.50
2023-05-07T11:00:13.370Z,15.70
2023-05-07T11:01:13.300Z,16.30
2023-05-07T11:02:13.362Z,17.20
2023-05-07T11:03:13.372Z,17.40
2023-05-07T11:04:13.282Z,15.80
2023-05-07T11:05:13.592Z,15.40
2023-05-07T11:06:13.267Z,15.00
2023-05-07T11:07:13.286Z,16.30
2023-05-07T11:08:13.237Z,15.80
2023-05-07T11:09:13.236Z,17.10
2023-05-07T11:10:13.253Z,16.50
2023-05-07T11:11:13.235Z,17.30
2023-05-07T11:12:13.228Z,15.90
2023-05-07T11:13:13.290Z,15.10
2023-05-07T11:14:13.203Z,14.30
2023-05-07T11:15:13.466Z,15.00
2023-05-07T11:16:13.261Z,14.30
2023-05-07T11:17:13.169Z,14.00
2023-05-07T11:18:13.183Z,14.00
2023-05-07T11:19:13.207Z,15.10
2023-05-07T11:20:13.142Z,15.30
2023-05-07T11:21:13.216Z,13.90
2023-05-07T11:22:13.131Z,14.60
2023-05-07T11:23:13.125Z,17.00
2023-05-07T11:24:13.117Z,16.00
2023-05-07T11:25:13.269Z,15.30
2023-05-07T11:26:13.116Z,14.40
2023-05-07T11:27:13.086Z,14.20
2023-05-07T11:28:13.081Z,14.60
2023-05-07T11:29:13.068Z,13.80
2023-05-07T11:30:13.089Z,16.00
2023-05-07T11:31:13.103Z,15.40
2023-05-07T11:32:13.196Z,15.80
2023-05-07T11:33:13.065Z,16.20
2023-05-07T11:34:13.034Z,14.80
2023-05-07T11:35:13.365Z,15.20
2023-05-07T11:36:13.033Z,15.70
2023-05-07T11:37:13.009Z,15.30
2023-05-07T11:38:13.006Z,15.00
2023-05-07T11:39:13.003Z,14.50
2023-05-07T11:40:44.928Z,16.90
2023-05-07T11:41:12.989Z,15.20
2023-05-07T11:42:12.967Z,16.40
2023-05-07T11:43:12.960Z,16.80
2023-05-07T11:44:12.953Z,16.10
2023-05-07T11:45:13.177Z,16.10
2023-05-07T11:46:12.983Z,17.80
2023-05-07T11:47:12.929Z,16.00
2023-05-07T11:48:13.027Z,14.80
2023-05-07T11:49:12.941Z,16.50
2023-05-07T11:51:00.437Z,16.60
2023-05-07T11:51:13.499Z,17.00
2023-05-07T11:52:12.903Z,16.20
2023-05-07T11:53:13.989Z,16.60
2023-05-07T11:54:13.959Z,16.50
2023-05-07T11:55:13.105Z,15.80
2023-05-07T11:56:12.863Z,15.90
2023-05-07T11:57:12.871Z,16.70
2023-05-07T11:58:12.915Z,16.50
2023-05-07T11:59:12.864Z,17.20
2023-05-07T12:00:12.820Z,16.70
2023-05-07T12:01:12.829Z,17.00
2023-05-07T12:02:12.876Z,15.80
2023-05-07T12:03:13.438Z,16.80
2023-05-07T12:04:12.946Z,16.40
2023-05-07T12:05:13.070Z,17.10
2023-05-07T12:06:12.862Z,16.10
2023-05-07T12:07:12.788Z,17.00
2023-05-07T12:08:12.854Z,17.20
2023-05-07T12:09:12.758Z,17.40
2023-05-07T12:10:12.752Z,17.20
2023-05-07T12:11:12.749Z,16.60
2023-05-07T12:12:12.761Z,17.30
2023-05-07T12:13:12.807Z,17.00
2023-05-07T12:14:12.780Z,16.80
2023-05-07T12:15:12.990Z,17.30
2023-05-07T12:16:12.714Z,16.10
2023-05-07T12:17:12.792Z,16.60
2023-05-07T12:18:12.768Z,16.70
2023-05-07T12:19:15.048Z,17.00
2023-05-07T12:20:13.281Z,17.70
2023-05-07T12:21:12.658Z,15.50
2023-05-07T12:22:12.677Z,16.60
2023-05-07T12:23:12.673Z,17.90
2023-05-07T12:24:12.758Z,16.30
2023-05-07T12:25:12.848Z,17.20
2023-05-07T12:26:12.626Z,16.90
2023-05-07T12:27:12.646Z,16.50
2023-05-07T12:28:12.654Z,16.30
2023-05-07T12:29:12.616Z,17.10
2023-05-07T12:30:12.647Z,16.20
2023-05-07T12:31:12.657Z,16.60
2023-05-07T12:32:12.654Z,17.30
2023-05-07T12:33:12.576Z,17.70
2023-05-07T12:34:12.571Z,17.80
2023-05-07T12:35:12.733Z,17.20
2023-05-07T12:36:12.574Z,18.50
2023-05-07T12:37:12.568Z,18.50
2023-05-07T12:38:12.543Z,17.40
2023-05-07T12:39:12.529Z,16.00
2023-05-07T12:40:12.539Z,17.50
2023-05-07T12:41:12.553Z,18.10
2023-05-07T12:42:12.513Z,15.90
2023-05-07T12:43:12.486Z,15.60
2023-05-07T12:44:12.493Z,15.90
2023-05-07T12:45:12.577Z,17.60
2023-05-07T12:46:12.512Z,16.90
2023-05-07T12:47:12.453Z,17.50
2023-05-07T12:48:12.460Z,15.50
2023-05-07T12:49:12.556Z,15.80
2023-05-07T12:50:12.467Z,16.00
2023-05-07T12:51:12.462Z,17.60
2023-05-07T12:52:12.426Z,17.10
2023-05-07T12:53:13.457Z,15.10